sensor_id;sensor_type;location;lat;lon;timestamp;temperature;humidity
25482;DHT22;13395;50.752;4.268;2023-01-28T00:00:54;5.40;99.90
25482;DHT22;13395;50.752;4.268;2023-01-28T00:03:19;5.50;99.90
25482;DHT22;13395;50.752;4.268;2023-01-28T00:05:45;5.50;99.90
25482;DHT22;13395;50.752;4.268;2023-01-28T00:08:11;5.50;99.90
25482;DHT22;13395;50.752;4.268;2023-01-28T00:10:39;5.60;99.90
25482;DHT22;13395;50.752;4.268;2023-01-28T00:13:06;5.60;99.90
25482;DHT22;13395;50.752;4.268;2023-01-28T00:15:31;5.50;99.90
25482;DHT22;13395;50.752;4.268;2023-01-28T00:17:57;5.40;99.90
25482;DHT22;13395;50.752;4.268;2023-01-28T00:20:22;5.40;99.90
25482;DHT22;13395;50.752;4.268;2023-01-28T00:22:48;5.40;99.90
25482;DHT22;13395;50.752;4.268;2023-01-28T00:25:14;5.40;99.90
25482;DHT22;13395;50.752;4.268;2023-01-28T00:27:40;5.40;99.90
25482;DHT22;13395;50.752;4.268;2023-01-28T00:30:06;5.40;99.90
25482;DHT22;13395;50.752;4.268;2023-01-28T00:32:32;5.50;99.90
25482;DHT22;13395;50.752;4.268;2023-01-28T00:34:58;5.50;99.90
25482;DHT22;13395;50.752;4.268;2023-01-28T00:37:23;5.50;99.90
25482;DHT22;13395;50.752;4.268;2023-01-28T00:39:49;5.40;99.90
25482;DHT22;13395;50.752;4.268;2023-01-28T00:42:15;5.40;99.90
25482;DHT22;13395;50.752;4.268;2023-01-28T00:44:40;5.40;99.90
25482;DHT22;13395;50.752;4.268;2023-01-28T00:47:06;5.40;99.90
25482;DHT22;13395;50.752;4.268;2023-01-28T00:49:32;5.40;99.90
25482;DHT22;13395;50.752;4.268;2023-01-28T00:51:58;5.50;99.90
25482;DHT22;13395;50.752;4.268;2023-01-28T00:54:23;5.40;99.90
25482;DHT22;13395;50.752;4.268;2023-01-28T00:56:49;5.40;99.90
25482;DHT22;13395;50.752;4.268;2023-01-28T00:59:14;5.30;99.90
25482;DHT22;13395;50.752;4.268;2023-01-28T01:01:41;5.30;99.90
25482;DHT22;13395;50.752;4.268;2023-01-28T01:04:06;5.20;99.90
25482;DHT22;13395;50.752;4.268;2023-01-28T01:06:35;5.20;99.90
25482;DHT22;13395;50.752;4.268;2023-01-28T01:09:04;5.20;99.90
25482;DHT22;13395;50.752;4.268;2023-01-28T01:11:30;5.30;99.90
25482;DHT22;13395;50.752;4.268;2023-01-28T01:13:57;5.10;99.90
25482;DHT22;13395;50.752;4.268;2023-01-28T01:16:26;5.20;99.90
25482;DHT22;13395;50.752;4.268;2023-01-28T01:18:53;5.30;99.90
25482;DHT22;13395;50.752;4.268;2023-01-28T01:21:21;5.30;99.90
25482;DHT22;13395;50.752;4.268;2023-01-28T01:23:47;5.30;99.90
25482;DHT22;13395;50.752;4.268;2023-01-28T01:26:13;5.30;99.90
25482;DHT22;13395;50.752;4.268;2023-01-28T01:28:39;5.20;99.90
25482;DHT22;13395;50.752;4.268;2023-01-28T01:31:07;5.20;99.90
25482;DHT22;13395;50.752;4.268;2023-01-28T01:33:33;5.20;99.90
25482;DHT22;13395;50.752;4.268;2023-01-28T01:35:59;5.20;99.90
25482;DHT22;13395;50.752;4.268;2023-01-28T01:38:26;5.20;99.90
25482;DHT22;13395;50.752;4.268;2023-01-28T01:40:55;5.20;99.90
25482;DHT22;13395;50.752;4.268;2023-01-28T01:43:22;5.10;99.90
25482;DHT22;13395;50.752;4.268;2023-01-28T01:45:56;5.10;99.90
25482;DHT22;13395;50.752;4.268;2023-01-28T01:48:33;5.20;99.90
25482;DHT22;13395;50.752;4.268;2023-01-28T01:51:04;5.00;99.90
25482;DHT22;13395;50.752;4.268;2023-01-28T01:53:35;5.10;99.90
25482;DHT22;13395;50.752;4.268;2023-01-28T01:56:04;5.10;99.90
25482;DHT22;13395;50.752;4.268;2023-01-28T01:58:34;5.10;99.90
25482;DHT22;13395;50.752;4.268;2023-01-28T02:01:01;5.10;99.90
25482;DHT22;13395;50.752;4.268;2023-01-28T02:06:06;5.20;99.90
25482;DHT22;13395;50.752;4.268;2023-01-28T02:08:32;5.20;99.90
25482;DHT22;13395;50.752;4.268;2023-01-28T02:11:01;5.20;99.90
25482;DHT22;13395;50.752;4.268;2023-01-28T02:13:32;5.30;99.90
25482;DHT22;13395;50.752;4.268;2023-01-28T02:16:00;5.40;99.90
25482;DHT22;13395;50.752;4.268;2023-01-28T02:18:27;5.30;99.90
25482;DHT22;13395;50.752;4.268;2023-01-28T02:26:05;5.30;99.90
25482;DHT22;13395;50.752;4.268;2023-01-28T02:28:54;5.30;99.90
25482;DHT22;13395;50.752;4.268;2023-01-28T02:31:30;5.30;99.90
25482;DHT22;13395;50.752;4.268;2023-01-28T02:39:22;5.40;99.90
25482;DHT22;13395;50.752;4.268;2023-01-28T02:41:52;5.30;99.90
25482;DHT22;13395;50.752;4.268;2023-01-28T02:44:20;5.40;99.90
25482;DHT22;13395;50.752;4.268;2023-01-28T02:46:46;5.40;99.90
25482;DHT22;13395;50.752;4.268;2023-01-28T02:49:44;5.20;99.90
25482;DHT22;13395;50.752;4.268;2023-01-28T02:55:27;5.20;99.90
25482;DHT22;13395;50.752;4.268;2023-01-28T03:04:03;5.30;99.90
25482;DHT22;13395;50.752;4.268;2023-01-28T03:06:55;5.20;99.90
25482;DHT22;13395;50.752;4.268;2023-01-28T03:09:23;5.20;99.90
25482;DHT22;13395;50.752;4.268;2023-01-28T03:12:08;5.20;99.90
25482;DHT22;13395;50.752;4.268;2023-01-28T03:14:59;5.20;99.90
25482;DHT22;13395;50.752;4.268;2023-01-28T03:20:53;5.10;99.90
25482;DHT22;13395;50.752;4.268;2023-01-28T03:30:25;5.30;99.90
25482;DHT22;13395;50.752;4.268;2023-01-28T03:33:11;5.20;99.90
25482;DHT22;13395;50.752;4.268;2023-01-28T03:35:55;5.10;99.90
25482;DHT22;13395;50.752;4.268;2023-01-28T03:38:41;5.10;99.90
25482;DHT22;13395;50.752;4.268;2023-01-28T03:41:09;5.20;99.90
25482;DHT22;13395;50.752;4.268;2023-01-28T03:43:35;5.00;99.90
25482;DHT22;13395;50.752;4.268;2023-01-28T03:46:01;5.10;99.90
25482;DHT22;13395;50.752;4.268;2023-01-28T03:48:28;5.10;99.90
25482;DHT22;13395;50.752;4.268;2023-01-28T03:50:54;5.10;99.90
25482;DHT22;13395;50.752;4.268;2023-01-28T03:53:21;5.10;99.90
25482;DHT22;13395;50.752;4.268;2023-01-28T03:55:49;4.90;99.90
25482;DHT22;13395;50.752;4.268;2023-01-28T03:58:15;4.90;99.90
25482;DHT22;13395;50.752;4.268;2023-01-28T04:00:41;4.90;99.90
25482;DHT22;13395;50.752;4.268;2023-01-28T04:03:18;5.10;99.90
25482;DHT22;13395;50.752;4.268;2023-01-28T04:05:45;5.00;99.90
25482;DHT22;13395;50.752;4.268;2023-01-28T04:08:11;5.00;99.90
25482;DHT22;13395;50.752;4.268;2023-01-28T04:10:40;4.90;99.90
25482;DHT22;13395;50.752;4.268;2023-01-28T04:13:06;4.90;99.90
25482;DHT22;13395;50.752;4.268;2023-01-28T04:15:32;4.90;99.90
25482;DHT22;13395;50.752;4.268;2023-01-28T04:17:58;4.90;99.90
25482;DHT22;13395;50.752;4.268;2023-01-28T04:20:25;4.80;99.90
25482;DHT22;13395;50.752;4.268;2023-01-28T04:22:51;4.80;99.90
25482;DHT22;13395;50.752;4.268;2023-01-28T04:25:16;4.80;99.90
25482;DHT22;13395;50.752;4.268;2023-01-28T04:27:42;4.80;99.90
25482;DHT22;13395;50.752;4.268;2023-01-28T04:30:08;4.80;99.90
25482;DHT22;13395;50.752;4.268;2023-01-28T04:32:34;4.80;99.90
25482;DHT22;13395;50.752;4.268;2023-01-28T04:34:59;4.80;99.90
25482;DHT22;13395;50.752;4.268;2023-01-28T04:37:25;4.80;99.90
25482;DHT22;13395;50.752;4.268;2023-01-28T04:39:50;4.80;99.90
25482;DHT22;13395;50.752;4.268;2023-01-28T04:42:16;4.80;99.90
25482;DHT22;13395;50.752;4.268;2023-01-28T04:44:41;4.90;99.90
25482;DHT22;13395;50.752;4.268;2023-01-28T04:47:07;4.90;99.90
25482;DHT22;13395;50.752;4.268;2023-01-28T04:49:32;5.00;99.90
25482;DHT22;13395;50.752;4.268;2023-01-28T04:51:58;5.00;99.90
25482;DHT22;13395;50.752;4.268;2023-01-28T04:54:24;4.90;99.90
25482;DHT22;13395;50.752;4.268;2023-01-28T04:56:49;4.90;99.90
25482;DHT22;13395;50.752;4.268;2023-01-28T04:59:15;4.90;99.90
25482;DHT22;13395;50.752;4.268;2023-01-28T05:01:40;5.00;99.90
25482;DHT22;13395;50.752;4.268;2023-01-28T05:04:06;4.90;99.90
25482;DHT22;13395;50.752;4.268;2023-01-28T05:06:32;4.90;99.90
25482;DHT22;13395;50.752;4.268;2023-01-28T05:08:58;4.90;99.90
25482;DHT22;13395;50.752;4.268;2023-01-28T05:11:24;4.90;99.90
25482;DHT22;13395;50.752;4.268;2023-01-28T05:13:49;4.90;99.90
25482;DHT22;13395;50.752;4.268;2023-01-28T05:16:15;5.00;99.90
25482;DHT22;13395;50.752;4.268;2023-01-28T05:18:41;4.80;99.90
25482;DHT22;13395;50.752;4.268;2023-01-28T05:21:07;4.80;99.90
25482;DHT22;13395;50.752;4.268;2023-01-28T05:23:33;4.90;99.90
25482;DHT22;13395;50.752;4.268;2023-01-28T05:25:59;4.90;99.90
25482;DHT22;13395;50.752;4.268;2023-01-28T05:28:24;5.10;99.90
25482;DHT22;13395;50.752;4.268;2023-01-28T05:30:50;5.00;99.90
25482;DHT22;13395;50.752;4.268;2023-01-28T05:33:15;5.10;99.90
25482;DHT22;13395;50.752;4.268;2023-01-28T05:35:42;4.90;99.90
25482;DHT22;13395;50.752;4.268;2023-01-28T05:38:07;4.90;99.90
25482;DHT22;13395;50.752;4.268;2023-01-28T05:40:33;4.90;99.90
25482;DHT22;13395;50.752;4.268;2023-01-28T05:42:59;4.90;99.90
25482;DHT22;13395;50.752;4.268;2023-01-28T05:45:24;4.80;99.90
25482;DHT22;13395;50.752;4.268;2023-01-28T05:47:50;4.80;99.90
25482;DHT22;13395;50.752;4.268;2023-01-28T05:50:16;4.80;99.90
25482;DHT22;13395;50.752;4.268;2023-01-28T05:52:41;4.60;99.90
25482;DHT22;13395;50.752;4.268;2023-01-28T05:55:08;4.60;99.90
25482;DHT22;13395;50.752;4.268;2023-01-28T05:57:33;4.60;99.90
25482;DHT22;13395;50.752;4.268;2023-01-28T05:59:59;4.60;99.90
25482;DHT22;13395;50.752;4.268;2023-01-28T06:02:25;4.70;99.90
25482;DHT22;13395;50.752;4.268;2023-01-28T06:04:50;4.60;99.90
25482;DHT22;13395;50.752;4.268;2023-01-28T06:07:16;4.70;99.90
25482;DHT22;13395;50.752;4.268;2023-01-28T06:09:45;4.70;99.90
25482;DHT22;13395;50.752;4.268;2023-01-28T06:12:11;4.70;99.90
25482;DHT22;13395;50.752;4.268;2023-01-28T06:14:37;4.80;99.90
25482;DHT22;13395;50.752;4.268;2023-01-28T06:17:02;4.80;99.90
25482;DHT22;13395;50.752;4.268;2023-01-28T06:19:28;4.60;99.90
25482;DHT22;13395;50.752;4.268;2023-01-28T06:21:53;4.60;99.90
25482;DHT22;13395;50.752;4.268;2023-01-28T06:24:19;4.60;99.90
25482;DHT22;13395;50.752;4.268;2023-01-28T06:26:45;4.60;99.90
25482;DHT22;13395;50.752;4.268;2023-01-28T06:29:10;4.50;99.90
25482;DHT22;13395;50.752;4.268;2023-01-28T06:31:36;4.70;99.90
25482;DHT22;13395;50.752;4.268;2023-01-28T06:34:02;4.70;99.90
25482;DHT22;13395;50.752;4.268;2023-01-28T06:36:27;4.60;99.90
25482;DHT22;13395;50.752;4.268;2023-01-28T06:38:53;4.50;99.90
25482;DHT22;13395;50.752;4.268;2023-01-28T06:41:18;4.60;99.90
25482;DHT22;13395;50.752;4.268;2023-01-28T06:43:44;4.70;99.90
25482;DHT22;13395;50.752;4.268;2023-01-28T06:46:10;4.70;99.90
25482;DHT22;13395;50.752;4.268;2023-01-28T06:48:35;4.60;99.90
25482;DHT22;13395;50.752;4.268;2023-01-28T06:51:01;4.60;99.90
25482;DHT22;13395;50.752;4.268;2023-01-28T06:53:27;4.70;99.90
25482;DHT22;13395;50.752;4.268;2023-01-28T06:55:52;4.60;99.90
25482;DHT22;13395;50.752;4.268;2023-01-28T06:58:18;4.50;99.90
25482;DHT22;13395;50.752;4.268;2023-01-28T07:00:44;4.40;99.90
25482;DHT22;13395;50.752;4.268;2023-01-28T07:03:09;4.40;99.90
25482;DHT22;13395;50.752;4.268;2023-01-28T07:05:35;4.30;99.90
25482;DHT22;13395;50.752;4.268;2023-01-28T07:08:00;4.20;99.90
25482;DHT22;13395;50.752;4.268;2023-01-28T07:10:27;4.30;99.90
25482;DHT22;13395;50.752;4.268;2023-01-28T07:12:53;4.20;99.90
25482;DHT22;13395;50.752;4.268;2023-01-28T07:15:18;4.20;99.90
25482;DHT22;13395;50.752;4.268;2023-01-28T07:17:44;4.10;99.90
25482;DHT22;13395;50.752;4.268;2023-01-28T07:20:12;4.10;99.90
25482;DHT22;13395;50.752;4.268;2023-01-28T07:22:42;4.20;99.90
25482;DHT22;13395;50.752;4.268;2023-01-28T07:25:09;4.20;99.90
25482;DHT22;13395;50.752;4.268;2023-01-28T07:27:35;4.30;99.90
25482;DHT22;13395;50.752;4.268;2023-01-28T07:30:01;4.30;99.90
25482;DHT22;13395;50.752;4.268;2023-01-28T07:32:27;4.20;99.90
25482;DHT22;13395;50.752;4.268;2023-01-28T07:34:53;4.10;99.90
25482;DHT22;13395;50.752;4.268;2023-01-28T07:37:19;4.10;99.90
25482;DHT22;13395;50.752;4.268;2023-01-28T07:39:45;4.00;99.90
25482;DHT22;13395;50.752;4.268;2023-01-28T07:42:11;4.00;99.90
25482;DHT22;13395;50.752;4.268;2023-01-28T07:44:37;4.00;99.90
25482;DHT22;13395;50.752;4.268;2023-01-28T07:47:03;3.90;99.90
25482;DHT22;13395;50.752;4.268;2023-01-28T07:49:29;3.80;99.90
25482;DHT22;13395;50.752;4.268;2023-01-28T07:51:55;3.70;99.90
25482;DHT22;13395;50.752;4.268;2023-01-28T07:54:20;3.80;99.90
25482;DHT22;13395;50.752;4.268;2023-01-28T07:56:46;3.90;99.90
25482;DHT22;13395;50.752;4.268;2023-01-28T07:59:11;3.90;99.90
25482;DHT22;13395;50.752;4.268;2023-01-28T08:01:37;3.80;99.90
25482;DHT22;13395;50.752;4.268;2023-01-28T08:04:03;3.80;99.90
25482;DHT22;13395;50.752;4.268;2023-01-28T08:06:29;3.80;99.90
25482;DHT22;13395;50.752;4.268;2023-01-28T08:08:54;3.70;99.90
25482;DHT22;13395;50.752;4.268;2023-01-28T08:11:20;3.80;99.90
25482;DHT22;13395;50.752;4.268;2023-01-28T08:13:47;3.80;99.90
25482;DHT22;13395;50.752;4.268;2023-01-28T08:16:13;3.80;99.90
25482;DHT22;13395;50.752;4.268;2023-01-28T08:18:38;3.80;99.90
25482;DHT22;13395;50.752;4.268;2023-01-28T08:21:04;3.70;99.90
25482;DHT22;13395;50.752;4.268;2023-01-28T08:23:30;3.70;99.90
25482;DHT22;13395;50.752;4.268;2023-01-28T08:25:59;3.70;99.90
25482;DHT22;13395;50.752;4.268;2023-01-28T08:28:25;3.90;99.90
25482;DHT22;13395;50.752;4.268;2023-01-28T08:30:50;3.80;99.90
25482;DHT22;13395;50.752;4.268;2023-01-28T08:33:17;3.80;99.90
25482;DHT22;13395;50.752;4.268;2023-01-28T08:35:43;3.80;99.90
25482;DHT22;13395;50.752;4.268;2023-01-28T08:38:11;3.90;99.90
25482;DHT22;13395;50.752;4.268;2023-01-28T08:40:37;4.00;99.90
25482;DHT22;13395;50.752;4.268;2023-01-28T08:43:02;4.00;99.90
25482;DHT22;13395;50.752;4.268;2023-01-28T08:45:28;4.00;99.90
25482;DHT22;13395;50.752;4.268;2023-01-28T08:48:03;4.10;99.90
25482;DHT22;13395;50.752;4.268;2023-01-28T08:50:31;4.10;99.90
25482;DHT22;13395;50.752;4.268;2023-01-28T08:52:59;4.20;99.90
25482;DHT22;13395;50.752;4.268;2023-01-28T08:55:26;4.30;99.90
25482;DHT22;13395;50.752;4.268;2023-01-28T08:57:52;4.30;99.90
25482;DHT22;13395;50.752;4.268;2023-01-28T09:00:19;4.30;99.90
25482;DHT22;13395;50.752;4.268;2023-01-28T09:02:45;4.30;99.90
25482;DHT22;13395;50.752;4.268;2023-01-28T09:05:11;4.30;99.90
25482;DHT22;13395;50.752;4.268;2023-01-28T09:07:37;4.20;99.90
25482;DHT22;13395;50.752;4.268;2023-01-28T09:10:03;4.20;99.90
25482;DHT22;13395;50.752;4.268;2023-01-28T09:12:29;4.10;99.90
25482;DHT22;13395;50.752;4.268;2023-01-28T09:14:55;4.20;99.90
25482;DHT22;13395;50.752;4.268;2023-01-28T09:17:21;4.40;99.90
25482;DHT22;13395;50.752;4.268;2023-01-28T09:19:46;4.30;99.90
25482;DHT22;13395;50.752;4.268;2023-01-28T09:22:12;4.40;99.90
25482;DHT22;13395;50.752;4.268;2023-01-28T09:24:38;4.40;99.90
25482;DHT22;13395;50.752;4.268;2023-01-28T09:27:03;4.30;99.90
25482;DHT22;13395;50.752;4.268;2023-01-28T09:29:29;4.20;99.90
25482;DHT22;13395;50.752;4.268;2023-01-28T09:31:54;4.30;99.90
25482;DHT22;13395;50.752;4.268;2023-01-28T09:34:20;4.40;99.90
25482;DHT22;13395;50.752;4.268;2023-01-28T09:36:46;4.50;99.90
25482;DHT22;13395;50.752;4.268;2023-01-28T09:39:11;4.50;99.90
25482;DHT22;13395;50.752;4.268;2023-01-28T09:46:48;4.60;99.90
25482;DHT22;13395;50.752;4.268;2023-01-28T09:49:34;4.50;99.90
25482;DHT22;13395;50.752;4.268;2023-01-28T09:52:02;4.30;99.90
25482;DHT22;13395;50.752;4.268;2023-01-28T09:54:41;4.30;99.90
25482;DHT22;13395;50.752;4.268;2023-01-28T09:57:17;4.30;99.90
25482;DHT22;13395;50.752;4.268;2023-01-28T09:59:44;4.40;99.90
25482;DHT22;13395;50.752;4.268;2023-01-28T10:07:56;4.70;99.90
25482;DHT22;13395;50.752;4.268;2023-01-28T10:10:25;4.60;99.90
25482;DHT22;13395;50.752;4.268;2023-01-28T10:13:06;4.50;99.90
25482;DHT22;13395;50.752;4.268;2023-01-28T10:21:10;4.60;99.90
25482;DHT22;13395;50.752;4.268;2023-01-28T10:24:05;4.60;99.90
25482;DHT22;13395;50.752;4.268;2023-01-28T10:26:37;4.70;99.90
25482;DHT22;13395;50.752;4.268;2023-01-28T10:29:10;4.70;99.90
25482;DHT22;13395;50.752;4.268;2023-01-28T10:31:43;4.70;99.90
25482;DHT22;13395;50.752;4.268;2023-01-28T10:34:11;4.80;99.90
25482;DHT22;13395;50.752;4.268;2023-01-28T10:36:37;4.70;99.90
25482;DHT22;13395;50.752;4.268;2023-01-28T10:39:03;4.70;99.90
25482;DHT22;13395;50.752;4.268;2023-01-28T10:41:28;4.80;99.90
25482;DHT22;13395;50.752;4.268;2023-01-28T10:43:56;4.70;99.90
25482;DHT22;13395;50.752;4.268;2023-01-28T10:46:27;4.70;99.90
25482;DHT22;13395;50.752;4.268;2023-01-28T10:49:00;4.60;99.90
25482;DHT22;13395;50.752;4.268;2023-01-28T10:51:35;4.60;99.90
25482;DHT22;13395;50.752;4.268;2023-01-28T10:54:03;4.50;99.90
25482;DHT22;13395;50.752;4.268;2023-01-28T10:56:33;4.40;99.90
25482;DHT22;13395;50.752;4.268;2023-01-28T10:59:06;4.30;99.90
25482;DHT22;13395;50.752;4.268;2023-01-28T11:01:58;4.40;99.90
25482;DHT22;13395;50.752;4.268;2023-01-28T11:04:30;4.60;99.90
25482;DHT22;13395;50.752;4.268;2023-01-28T11:07:16;4.70;99.90
25482;DHT22;13395;50.752;4.268;2023-01-28T11:09:48;4.70;99.90
25482;DHT22;13395;50.752;4.268;2023-01-28T11:12:28;4.70;99.90
25482;DHT22;13395;50.752;4.268;2023-01-28T11:15:03;4.90;99.90
25482;DHT22;13395;50.752;4.268;2023-01-28T11:17:37;4.80;99.90
25482;DHT22;13395;50.752;4.268;2023-01-28T11:20:19;4.70;99.90
25482;DHT22;13395;50.752;4.268;2023-01-28T11:22:46;4.70;99.90
25482;DHT22;13395;50.752;4.268;2023-01-28T11:25:33;4.80;99.90
25482;DHT22;13395;50.752;4.268;2023-01-28T11:28:17;4.90;99.90
25482;DHT22;13395;50.752;4.268;2023-01-28T11:30:49;4.80;99.90
25482;DHT22;13395;50.752;4.268;2023-01-28T11:33:18;4.50;99.90
25482;DHT22;13395;50.752;4.268;2023-01-28T11:35:55;4.60;99.90
25482;DHT22;13395;50.752;4.268;2023-01-28T11:38:23;4.50;99.90
25482;DHT22;13395;50.752;4.268;2023-01-28T11:40:56;4.50;99.90
25482;DHT22;13395;50.752;4.268;2023-01-28T11:43:27;4.50;99.90
25482;DHT22;13395;50.752;4.268;2023-01-28T11:48:54;4.60;99.90
25482;DHT22;13395;50.752;4.268;2023-01-28T11:59:23;4.70;99.90
25482;DHT22;13395;50.752;4.268;2023-01-28T12:08:05;4.80;99.90
25482;DHT22;13395;50.752;4.268;2023-01-28T12:19:32;4.80;99.90
25482;DHT22;13395;50.752;4.268;2023-01-28T12:22:06;4.90;99.90
25482;DHT22;13395;50.752;4.268;2023-01-28T12:30:12;4.60;99.90
25482;DHT22;13395;50.752;4.268;2023-01-28T12:32:48;4.60;99.90
25482;DHT22;13395;50.752;4.268;2023-01-28T12:35:45;4.80;99.90
25482;DHT22;13395;50.752;4.268;2023-01-28T12:41:21;4.80;99.90
25482;DHT22;13395;50.752;4.268;2023-01-28T12:43:56;5.00;99.90
25482;DHT22;13395;50.752;4.268;2023-01-28T12:46:47;5.00;99.90
25482;DHT22;13395;50.752;4.268;2023-01-28T12:49:31;5.00;99.90
25482;DHT22;13395;50.752;4.268;2023-01-28T12:52:09;5.20;99.90
25482;DHT22;13395;50.752;4.268;2023-01-28T12:55:05;5.40;99.90
25482;DHT22;13395;50.752;4.268;2023-01-28T12:57:36;5.70;99.90
25482;DHT22;13395;50.752;4.268;2023-01-28T13:05:43;5.80;99.90
25482;DHT22;13395;50.752;4.268;2023-01-28T13:08:28;6.30;99.90
25482;DHT22;13395;50.752;4.268;2023-01-28T13:10:57;6.80;99.90
25482;DHT22;13395;50.752;4.268;2023-01-28T13:16:00;9.40;99.90
25482;DHT22;13395;50.752;4.268;2023-01-28T13:21:05;11.60;97.30
25482;DHT22;13395;50.752;4.268;2023-01-28T13:23:47;12.20;95.20
25482;DHT22;13395;50.752;4.268;2023-01-28T13:28:47;14.20;90.90
25482;DHT22;13395;50.752;4.268;2023-01-28T13:31:15;14.40;90.20
25482;DHT22;13395;50.752;4.268;2023-01-28T13:38:47;15.00;85.90
25482;DHT22;13395;50.752;4.268;2023-01-28T13:41:13;14.60;85.60
25482;DHT22;13395;50.752;4.268;2023-01-28T13:43:40;14.90;83.90
25482;DHT22;13395;50.752;4.268;2023-01-28T13:46:28;14.50;84.00
25482;DHT22;13395;50.752;4.268;2023-01-28T13:48:56;14.90;84.40
25482;DHT22;13395;50.752;4.268;2023-01-28T13:52:03;15.00;83.10
25482;DHT22;13395;50.752;4.268;2023-01-28T13:54:31;15.20;83.80
25482;DHT22;13395;50.752;4.268;2023-01-28T13:59:40;15.30;81.40
25482;DHT22;13395;50.752;4.268;2023-01-28T14:18:43;11.80;87.40
25482;DHT22;13395;50.752;4.268;2023-01-28T14:21:15;11.50;89.70
25482;DHT22;13395;50.752;4.268;2023-01-28T14:23:49;10.60;90.10
25482;DHT22;13395;50.752;4.268;2023-01-28T14:26:33;10.00;91.10
25482;DHT22;13395;50.752;4.268;2023-01-28T14:29:13;9.70;92.10
25482;DHT22;13395;50.752;4.268;2023-01-28T14:31:42;9.10;92.80
25482;DHT22;13395;50.752;4.268;2023-01-28T14:34:32;8.60;93.80
25482;DHT22;13395;50.752;4.268;2023-01-28T14:37:19;8.00;95.10
25482;DHT22;13395;50.752;4.268;2023-01-28T14:40:16;7.90;95.50
25482;DHT22;13395;50.752;4.268;2023-01-28T14:42:45;7.90;95.90
25482;DHT22;13395;50.752;4.268;2023-01-28T14:51:21;7.50;97.00
25482;DHT22;13395;50.752;4.268;2023-01-28T14:53:46;7.20;97.00
25482;DHT22;13395;50.752;4.268;2023-01-28T14:56:33;7.10;97.00
25482;DHT22;13395;50.752;4.268;2023-01-28T14:59:23;7.00;97.60
25482;DHT22;13395;50.752;4.268;2023-01-28T15:01:55;6.70;97.80
25482;DHT22;13395;50.752;4.268;2023-01-28T15:04:27;6.40;98.30
25482;DHT22;13395;50.752;4.268;2023-01-28T15:06:53;6.30;98.70
25482;DHT22;13395;50.752;4.268;2023-01-28T15:09:20;6.20;99.10
25482;DHT22;13395;50.752;4.268;2023-01-28T15:11:50;6.00;99.90
25482;DHT22;13395;50.752;4.268;2023-01-28T15:14:34;5.90;99.90
25482;DHT22;13395;50.752;4.268;2023-01-28T15:17:00;5.80;99.90
25482;DHT22;13395;50.752;4.268;2023-01-28T15:19:29;5.70;99.90
25482;DHT22;13395;50.752;4.268;2023-01-28T15:21:56;5.80;99.90
25482;DHT22;13395;50.752;4.268;2023-01-28T15:24:23;5.90;99.90
25482;DHT22;13395;50.752;4.268;2023-01-28T15:26:49;5.80;99.90
25482;DHT22;13395;50.752;4.268;2023-01-28T15:29:29;5.60;99.90
25482;DHT22;13395;50.752;4.268;2023-01-28T15:31:55;5.60;99.90
25482;DHT22;13395;50.752;4.268;2023-01-28T15:34:20;5.60;99.90
25482;DHT22;13395;50.752;4.268;2023-01-28T15:36:48;5.50;99.90
25482;DHT22;13395;50.752;4.268;2023-01-28T15:39:19;5.50;99.90
25482;DHT22;13395;50.752;4.268;2023-01-28T15:41:52;5.40;99.90
25482;DHT22;13395;50.752;4.268;2023-01-28T15:44:29;5.50;99.90
25482;DHT22;13395;50.752;4.268;2023-01-28T15:46:59;5.30;99.90
25482;DHT22;13395;50.752;4.268;2023-01-28T15:49:30;5.30;99.90
25482;DHT22;13395;50.752;4.268;2023-01-28T15:51:56;5.20;99.90
25482;DHT22;13395;50.752;4.268;2023-01-28T15:54:22;5.20;99.90
25482;DHT22;13395;50.752;4.268;2023-01-28T15:56:49;5.10;99.90
25482;DHT22;13395;50.752;4.268;2023-01-28T15:59:16;5.20;99.90
25482;DHT22;13395;50.752;4.268;2023-01-28T16:01:42;5.10;99.90
25482;DHT22;13395;50.752;4.268;2023-01-28T16:04:24;5.00;99.90
25482;DHT22;13395;50.752;4.268;2023-01-28T16:06:50;4.90;99.90
25482;DHT22;13395;50.752;4.268;2023-01-28T16:09:31;4.80;99.90
25482;DHT22;13395;50.752;4.268;2023-01-28T16:12:17;4.70;99.90
25482;DHT22;13395;50.752;4.268;2023-01-28T16:15:01;4.60;99.90
25482;DHT22;13395;50.752;4.268;2023-01-28T16:17:30;4.40;99.90
25482;DHT22;13395;50.752;4.268;2023-01-28T16:20:02;4.60;99.90
25482;DHT22;13395;50.752;4.268;2023-01-28T16:22:36;4.50;99.90
25482;DHT22;13395;50.752;4.268;2023-01-28T16:25:27;4.60;99.90
25482;DHT22;13395;50.752;4.268;2023-01-28T16:27:53;4.60;99.90
25482;DHT22;13395;50.752;4.268;2023-01-28T16:30:19;4.60;99.90
25482;DHT22;13395;50.752;4.268;2023-01-28T16:32:45;4.70;99.90
25482;DHT22;13395;50.752;4.268;2023-01-28T16:35:17;4.80;99.90
25482;DHT22;13395;50.752;4.268;2023-01-28T16:37:44;4.70;99.90
25482;DHT22;13395;50.752;4.268;2023-01-28T16:40:11;4.70;99.90
25482;DHT22;13395;50.752;4.268;2023-01-28T16:42:38;4.80;99.90
25482;DHT22;13395;50.752;4.268;2023-01-28T16:45:04;4.70;99.90
25482;DHT22;13395;50.752;4.268;2023-01-28T16:47:30;4.70;99.90
25482;DHT22;13395;50.752;4.268;2023-01-28T16:49:56;4.60;99.90
25482;DHT22;13395;50.752;4.268;2023-01-28T16:52:21;4.70;99.90
25482;DHT22;13395;50.752;4.268;2023-01-28T16:54:47;4.80;99.90
25482;DHT22;13395;50.752;4.268;2023-01-28T16:57:18;4.80;99.90
25482;DHT22;13395;50.752;4.268;2023-01-28T16:59:44;4.70;99.90
25482;DHT22;13395;50.752;4.268;2023-01-28T17:02:15;4.70;99.90
25482;DHT22;13395;50.752;4.268;2023-01-28T17:04:41;4.70;99.90
25482;DHT22;13395;50.752;4.268;2023-01-28T17:07:07;4.80;99.90
25482;DHT22;13395;50.752;4.268;2023-01-28T17:09:33;4.70;99.90
25482;DHT22;13395;50.752;4.268;2023-01-28T17:12:00;4.60;99.90
25482;DHT22;13395;50.752;4.268;2023-01-28T17:14:26;4.60;99.90
25482;DHT22;13395;50.752;4.268;2023-01-28T17:16:51;4.40;99.90
25482;DHT22;13395;50.752;4.268;2023-01-28T17:19:17;4.30;99.90
25482;DHT22;13395;50.752;4.268;2023-01-28T17:21:43;4.30;99.90
25482;DHT22;13395;50.752;4.268;2023-01-28T17:24:09;4.20;99.90
25482;DHT22;13395;50.752;4.268;2023-01-28T17:26:35;4.20;99.90
25482;DHT22;13395;50.752;4.268;2023-01-28T17:29:05;4.00;99.90
25482;DHT22;13395;50.752;4.268;2023-01-28T17:31:31;4.00;99.90
25482;DHT22;13395;50.752;4.268;2023-01-28T17:33:57;3.80;99.90
25482;DHT22;13395;50.752;4.268;2023-01-28T17:36:24;3.70;99.90
25482;DHT22;13395;50.752;4.268;2023-01-28T17:38:50;3.70;99.90
25482;DHT22;13395;50.752;4.268;2023-01-28T17:41:16;3.70;99.90
25482;DHT22;13395;50.752;4.268;2023-01-28T17:43:42;3.50;99.90
25482;DHT22;13395;50.752;4.268;2023-01-28T17:46:12;3.40;99.90
25482;DHT22;13395;50.752;4.268;2023-01-28T17:48:39;3.30;99.90
25482;DHT22;13395;50.752;4.268;2023-01-28T17:51:05;3.20;99.90
25482;DHT22;13395;50.752;4.268;2023-01-28T17:53:32;3.20;99.90
25482;DHT22;13395;50.752;4.268;2023-01-28T17:55:57;3.20;99.90
25482;DHT22;13395;50.752;4.268;2023-01-28T17:58:23;3.20;99.90
25482;DHT22;13395;50.752;4.268;2023-01-28T18:00:48;3.10;99.90
25482;DHT22;13395;50.752;4.268;2023-01-28T18:03:15;3.10;99.90
25482;DHT22;13395;50.752;4.268;2023-01-28T18:05:41;3.00;99.90